sensor_id;sensor_type;location;lat;lon;timestamp;P1;durP1;ratioP1;P2;durP2;ratioP2
61527;SDS011;47395;42.032;-8.634;2023-01-20T00:01:19;1730.85;;;999.90;;
61527;SDS011;47395;42.032;-8.634;2023-01-20T00:03:20;1844.05;;;999.90;;
61527;SDS011;47395;42.032;-8.634;2023-01-20T00:05:20;1721.15;;;999.90;;
61527;SDS011;47395;42.032;-8.634;2023-01-20T00:07:22;1747.63;;;999.90;;
61527;SDS011;47395;42.032;-8.634;2023-01-20T00:09:23;1748.20;;;999.90;;
61527;SDS011;47395;42.032;-8.634;2023-01-20T00:11:24;1826.05;;;999.90;;
61527;SDS011;47395;42.032;-8.634;2023-01-20T00:13:26;1746.28;;;999.90;;
61527;SDS011;47395;42.032;-8.634;2023-01-20T00:15:26;1800.30;;;999.90;;
61527;SDS011;47395;42.032;-8.634;2023-01-20T00:17:27;1770.05;;;999.90;;
61527;SDS011;47395;42.032;-8.634;2023-01-20T00:19:28;1742.35;;;999.90;;
61527;SDS011;47395;42.032;-8.634;2023-01-20T00:21:29;1879.57;;;999.90;;
61527;SDS011;47395;42.032;-8.634;2023-01-20T00:23:30;1872.40;;;999.90;;
61527;SDS011;47395;42.032;-8.634;2023-01-20T00:25:34;1892.18;;;999.90;;
61527;SDS011;47395;42.032;-8.634;2023-01-20T00:27:35;1817.30;;;999.90;;
61527;SDS011;47395;42.032;-8.634;2023-01-20T00:29:36;1782.05;;;999.90;;
61527;SDS011;47395;42.032;-8.634;2023-01-20T00:31:37;1874.32;;;999.90;;
61527;SDS011;47395;42.032;-8.634;2023-01-20T00:33:38;1825.47;;;999.90;;
61527;SDS011;47395;42.032;-8.634;2023-01-20T00:35:39;1853.57;;;999.90;;
61527;SDS011;47395;42.032;-8.634;2023-01-20T00:37:41;1805.30;;;999.90;;
61527;SDS011;47395;42.032;-8.634;2023-01-20T00:39:43;1853.53;;;999.90;;
61527;SDS011;47395;42.032;-8.634;2023-01-20T00:41:44;1888.82;;;999.90;;
61527;SDS011;47395;42.032;-8.634;2023-01-20T00:43:46;1903.70;;;999.90;;
61527;SDS011;47395;42.032;-8.634;2023-01-20T00:45:47;1917.45;;;999.90;;
61527;SDS011;47395;42.032;-8.634;2023-01-20T00:47:48;1897.82;;;999.90;;
61527;SDS011;47395;42.032;-8.634;2023-01-20T00:49:49;1836.13;;;999.90;;
61527;SDS011;47395;42.032;-8.634;2023-01-20T00:51:50;1885.45;;;999.90;;
61527;SDS011;47395;42.032;-8.634;2023-01-20T00:53:52;1857.60;;;999.90;;
61527;SDS011;47395;42.032;-8.634;2023-01-20T00:55:53;1847.13;;;999.90;;
61527;SDS011;47395;42.032;-8.634;2023-01-20T00:57:56;1867.22;;;999.90;;
61527;SDS011;47395;42.032;-8.634;2023-01-20T00:59:57;1914.53;;;999.90;;
61527;SDS011;47395;42.032;-8.634;2023-01-20T01:01:58;1824.07;;;999.90;;
61527;SDS011;47395;42.032;-8.634;2023-01-20T01:03:59;1862.53;;;999.90;;
61527;SDS011;47395;42.032;-8.634;2023-01-20T01:06:07;1908.32;;;999.90;;
61527;SDS011;47395;42.032;-8.634;2023-01-20T01:08:13;1801.65;;;999.90;;
61527;SDS011;47395;42.032;-8.634;2023-01-20T01:10:15;1888.28;;;999.90;;
61527;SDS011;47395;42.032;-8.634;2023-01-20T01:12:16;1922.57;;;999.90;;
61527;SDS011;47395;42.032;-8.634;2023-01-20T01:14:17;1871.75;;;999.90;;
61527;SDS011;47395;42.032;-8.634;2023-01-20T01:16:18;1876.97;;;999.90;;
61527;SDS011;47395;42.032;-8.634;2023-01-20T01:18:19;1879.70;;;999.90;;
61527;SDS011;47395;42.032;-8.634;2023-01-20T01:20:20;1884.20;;;999.90;;
61527;SDS011;47395;42.032;-8.634;2023-01-20T01:22:21;1856.43;;;999.90;;
61527;SDS011;47395;42.032;-8.634;2023-01-20T01:24:22;1881.75;;;999.90;;
61527;SDS011;47395;42.032;-8.634;2023-01-20T01:26:23;1833.88;;;999.90;;
61527;SDS011;47395;42.032;-8.634;2023-01-20T01:28:24;1808.22;;;999.90;;
61527;SDS011;47395;42.032;-8.634;2023-01-20T01:30:25;1797.45;;;999.90;;
61527;SDS011;47395;42.032;-8.634;2023-01-20T01:32:26;1883.38;;;999.90;;
61527;SDS011;47395;42.032;-8.634;2023-01-20T01:34:27;1805.70;;;999.90;;
61527;SDS011;47395;42.032;-8.634;2023-01-20T01:36:28;1929.13;;;999.90;;
61527;SDS011;47395;42.032;-8.634;2023-01-20T01:38:29;1786.32;;;999.90;;
61527;SDS011;47395;42.032;-8.634;2023-01-20T01:40:30;1798.40;;;999.90;;
61527;SDS011;47395;42.032;-8.634;2023-01-20T01:42:30;1858.78;;;999.90;;
61527;SDS011;47395;42.032;-8.634;2023-01-20T01:44:32;1933.65;;;999.90;;
61527;SDS011;47395;42.032;-8.634;2023-01-20T01:46:37;1847.70;;;999.90;;
61527;SDS011;47395;42.032;-8.634;2023-01-20T01:48:42;1777.15;;;999.90;;
61527;SDS011;47395;42.032;-8.634;2023-01-20T01:50:46;1792.72;;;999.90;;
61527;SDS011;47395;42.032;-8.634;2023-01-20T01:52:52;1911.07;;;999.90;;
61527;SDS011;47395;42.032;-8.634;2023-01-20T01:54:55;1842.15;;;999.90;;
61527;SDS011;47395;42.032;-8.634;2023-01-20T01:56:57;1865.65;;;999.90;;
61527;SDS011;47395;42.032;-8.634;2023-01-20T01:59:00;1917.85;;;999.90;;
61527;SDS011;47395;42.032;-8.634;2023-01-20T02:01:05;1842.30;;;999.90;;
61527;SDS011;47395;42.032;-8.634;2023-01-20T02:03:07;1853.97;;;999.90;;
61527;SDS011;47395;42.032;-8.634;2023-01-20T02:05:09;1860.70;;;999.90;;
61527;SDS011;47395;42.032;-8.634;2023-01-20T02:07:12;1798.82;;;999.90;;
61527;SDS011;47395;42.032;-8.634;2023-01-20T02:09:15;1910.85;;;999.90;;
61527;SDS011;47395;42.032;-8.634;2023-01-20T02:11:16;1819.22;;;999.90;;
61527;SDS011;47395;42.032;-8.634;2023-01-20T02:13:18;1873.95;;;999.90;;
61527;SDS011;47395;42.032;-8.634;2023-01-20T02:15:21;1869.72;;;999.90;;
61527;SDS011;47395;42.032;-8.634;2023-01-20T02:17:29;1805.68;;;999.90;;
61527;SDS011;47395;42.032;-8.634;2023-01-20T02:29:38;1753.30;;;999.90;;
61527;SDS011;47395;42.032;-8.634;2023-01-20T02:32:20;1713.55;;;999.90;;
61527;SDS011;47395;42.032;-8.634;2023-01-20T02:34:55;1696.50;;;999.90;;
61527;SDS011;47395;42.032;-8.634;2023-01-20T02:37:08;1726.53;;;999.90;;
61527;SDS011;47395;42.032;-8.634;2023-01-20T02:42:14;1816.72;;;999.90;;
61527;SDS011;47395;42.032;-8.634;2023-01-20T02:47:13;1856.85;;;999.90;;
61527;SDS011;47395;42.032;-8.634;2023-01-20T02:49:34;1753.90;;;999.90;;
61527;SDS011;47395;42.032;-8.634;2023-01-20T02:52:02;1750.28;;;999.90;;
61527;SDS011;47395;42.032;-8.634;2023-01-20T02:54:30;1801.27;;;999.90;;
61527;SDS011;47395;42.032;-8.634;2023-01-20T02:56:35;1777.47;;;999.90;;
61527;SDS011;47395;42.032;-8.634;2023-01-20T02:58:42;1841.47;;;999.90;;
61527;SDS011;47395;42.032;-8.634;2023-01-20T03:00:55;1877.15;;;999.90;;
61527;SDS011;47395;42.032;-8.634;2023-01-20T03:03:01;1901.32;;;999.90;;
61527;SDS011;47395;42.032;-8.634;2023-01-20T03:05:11;1820.82;;;999.90;;
61527;SDS011;47395;42.032;-8.634;2023-01-20T03:07:17;1785.85;;;999.90;;
61527;SDS011;47395;42.032;-8.634;2023-01-20T03:09:35;1766.97;;;999.90;;
61527;SDS011;47395;42.032;-8.634;2023-01-20T03:11:43;1868.97;;;999.90;;
61527;SDS011;47395;42.032;-8.634;2023-01-20T03:13:54;1842.50;;;999.90;;
61527;SDS011;47395;42.032;-8.634;2023-01-20T03:16:03;1811.15;;;999.90;;
61527;SDS011;47395;42.032;-8.634;2023-01-20T03:18:07;1855.55;;;999.90;;
61527;SDS011;47395;42.032;-8.634;2023-01-20T03:20:09;1776.95;;;999.90;;
61527;SDS011;47395;42.032;-8.634;2023-01-20T03:22:11;1873.35;;;999.90;;
61527;SDS011;47395;42.032;-8.634;2023-01-20T03:24:13;1768.75;;;999.90;;
61527;SDS011;47395;42.032;-8.634;2023-01-20T03:26:16;1885.03;;;999.90;;
61527;SDS011;47395;42.032;-8.634;2023-01-20T03:28:20;1875.63;;;999.90;;
61527;SDS011;47395;42.032;-8.634;2023-01-20T03:30:21;1804.50;;;999.90;;
61527;SDS011;47395;42.032;-8.634;2023-01-20T03:32:24;1854.57;;;999.90;;
61527;SDS011;47395;42.032;-8.634;2023-01-20T03:34:27;1885.38;;;999.90;;
61527;SDS011;47395;42.032;-8.634;2023-01-20T03:36:34;1880.18;;;999.90;;
61527;SDS011;47395;42.032;-8.634;2023-01-20T03:38:35;1818.32;;;999.90;;
61527;SDS011;47395;42.032;-8.634;2023-01-20T03:40:40;1950.50;;;999.90;;
61527;SDS011;47395;42.032;-8.634;2023-01-20T03:45:08;1681.90;;;999.90;;
61527;SDS011;47395;42.032;-8.634;2023-01-20T03:55:13;1849.97;;;999.90;;
61527;SDS011;47395;42.032;-8.634;2023-01-20T03:59:27;1662.53;;;999.90;;
61527;SDS011;47395;42.032;-8.634;2023-01-20T04:01:35;1748.22;;;999.90;;
61527;SDS011;47395;42.032;-8.634;2023-01-20T04:03:42;1829.05;;;999.90;;
61527;SDS011;47395;42.032;-8.634;2023-01-20T04:05:45;1833.80;;;999.90;;
61527;SDS011;47395;42.032;-8.634;2023-01-20T04:07:49;1826.57;;;999.90;;
61527;SDS011;47395;42.032;-8.634;2023-01-20T04:09:54;1817.60;;;999.90;;
61527;SDS011;47395;42.032;-8.634;2023-01-20T04:12:01;1753.60;;;999.90;;
61527;SDS011;47395;42.032;-8.634;2023-01-20T04:14:02;1807.28;;;999.90;;
61527;SDS011;47395;42.032;-8.634;2023-01-20T04:16:10;1805.75;;;999.90;;
61527;SDS011;47395;42.032;-8.634;2023-01-20T04:18:16;1840.38;;;999.90;;
61527;SDS011;47395;42.032;-8.634;2023-01-20T04:20:20;1771.55;;;999.90;;
61527;SDS011;47395;42.032;-8.634;2023-01-20T04:22:33;1832.28;;;999.90;;
61527;SDS011;47395;42.032;-8.634;2023-01-20T04:24:53;1817.15;;;999.90;;
61527;SDS011;47395;42.032;-8.634;2023-01-20T04:27:23;1747.43;;;999.90;;
61527;SDS011;47395;42.032;-8.634;2023-01-20T04:29:24;1805.10;;;999.90;;
61527;SDS011;47395;42.032;-8.634;2023-01-20T04:31:25;1864.38;;;999.90;;
61527;SDS011;47395;42.032;-8.634;2023-01-20T04:33:27;1874.45;;;999.90;;
61527;SDS011;47395;42.032;-8.634;2023-01-20T04:35:28;1877.13;;;999.90;;
61527;SDS011;47395;42.032;-8.634;2023-01-20T04:37:28;1904.03;;;999.90;;
61527;SDS011;47395;42.032;-8.634;2023-01-20T04:39:29;1817.75;;;999.90;;
61527;SDS011;47395;42.032;-8.634;2023-01-20T04:41:31;1876.25;;;999.90;;
61527;SDS011;47395;42.032;-8.634;2023-01-20T04:43:31;1729.00;;;999.90;;
61527;SDS011;47395;42.032;-8.634;2023-01-20T04:45:34;1831.60;;;999.90;;
61527;SDS011;47395;42.032;-8.634;2023-01-20T04:47:35;1846.85;;;999.90;;
61527;SDS011;47395;42.032;-8.634;2023-01-20T04:49:36;1805.95;;;999.90;;
61527;SDS011;47395;42.032;-8.634;2023-01-20T04:51:43;1807.00;;;999.90;;
61527;SDS011;47395;42.032;-8.634;2023-01-20T04:53:44;1795.78;;;999.90;;
61527;SDS011;47395;42.032;-8.634;2023-01-20T04:55:45;1843.10;;;999.90;;
61527;SDS011;47395;42.032;-8.634;2023-01-20T04:57:47;1847.32;;;999.90;;
61527;SDS011;47395;42.032;-8.634;2023-01-20T04:59:48;1853.55;;;999.90;;
61527;SDS011;47395;42.032;-8.634;2023-01-20T05:04:14;1873.32;;;999.90;;
61527;SDS011;47395;42.032;-8.634;2023-01-20T05:06:15;1816.43;;;999.90;;
61527;SDS011;47395;42.032;-8.634;2023-01-20T05:08:18;1865.85;;;999.90;;
61527;SDS011;47395;42.032;-8.634;2023-01-20T05:10:19;1867.15;;;999.90;;
61527;SDS011;47395;42.032;-8.634;2023-01-20T05:12:20;1860.53;;;999.90;;
61527;SDS011;47395;42.032;-8.634;2023-01-20T05:14:21;1807.38;;;999.90;;
61527;SDS011;47395;42.032;-8.634;2023-01-20T05:16:22;1864.50;;;999.90;;
61527;SDS011;47395;42.032;-8.634;2023-01-20T05:18:25;1934.38;;;999.90;;
61527;SDS011;47395;42.032;-8.634;2023-01-20T05:20:26;1801.13;;;999.90;;
61527;SDS011;47395;42.032;-8.634;2023-01-20T05:22:27;1841.68;;;999.90;;
61527;SDS011;47395;42.032;-8.634;2023-01-20T05:24:32;1844.93;;;999.90;;
61527;SDS011;47395;42.032;-8.634;2023-01-20T05:26:33;1880.30;;;999.90;;
61527;SDS011;47395;42.032;-8.634;2023-01-20T05:28:34;1875.72;;;999.90;;
61527;SDS011;47395;42.032;-8.634;2023-01-20T05:30:36;1801.20;;;999.90;;
61527;SDS011;47395;42.032;-8.634;2023-01-20T05:32:37;1798.07;;;999.90;;
61527;SDS011;47395;42.032;-8.634;2023-01-20T05:34:39;1803.57;;;999.90;;
61527;SDS011;47395;42.032;-8.634;2023-01-20T05:36:40;1823.95;;;999.90;;
61527;SDS011;47395;42.032;-8.634;2023-01-20T05:38:41;1808.43;;;999.90;;
61527;SDS011;47395;42.032;-8.634;2023-01-20T05:40:43;1867.20;;;999.90;;
61527;SDS011;47395;42.032;-8.634;2023-01-20T05:42:44;1810.30;;;999.90;;
61527;SDS011;47395;42.032;-8.634;2023-01-20T05:44:45;1913.30;;;999.90;;
61527;SDS011;47395;42.032;-8.634;2023-01-20T05:46:48;1878.63;;;999.90;;
61527;SDS011;47395;42.032;-8.634;2023-01-20T05:48:50;1843.28;;;999.90;;
61527;SDS011;47395;42.032;-8.634;2023-01-20T05:50:51;1854.65;;;999.90;;
61527;SDS011;47395;42.032;-8.634;2023-01-20T05:52:52;1754.65;;;999.90;;
61527;SDS011;47395;42.032;-8.634;2023-01-20T05:54:54;1884.45;;;999.90;;
61527;SDS011;47395;42.032;-8.634;2023-01-20T05:56:55;1857.38;;;999.90;;
61527;SDS011;47395;42.032;-8.634;2023-01-20T05:58:57;1772.03;;;999.90;;
61527;SDS011;47395;42.032;-8.634;2023-01-20T06:01:05;1719.22;;;999.90;;
61527;SDS011;47395;42.032;-8.634;2023-01-20T06:03:10;1845.70;;;999.90;;
61527;SDS011;47395;42.032;-8.634;2023-01-20T06:05:11;1785.63;;;999.90;;
61527;SDS011;47395;42.032;-8.634;2023-01-20T06:07:12;1877.75;;;999.90;;
61527;SDS011;47395;42.032;-8.634;2023-01-20T06:09:14;1937.40;;;999.90;;
61527;SDS011;47395;42.032;-8.634;2023-01-20T06:11:16;1908.63;;;999.90;;
61527;SDS011;47395;42.032;-8.634;2023-01-20T06:13:17;1838.53;;;999.90;;
61527;SDS011;47395;42.032;-8.634;2023-01-20T06:15:20;1758.65;;;999.90;;
61527;SDS011;47395;42.032;-8.634;2023-01-20T06:17:24;1827.35;;;999.90;;
61527;SDS011;47395;42.032;-8.634;2023-01-20T06:19:25;1827.85;;;999.90;;
61527;SDS011;47395;42.032;-8.634;2023-01-20T06:21:26;1823.30;;;999.90;;
61527;SDS011;47395;42.032;-8.634;2023-01-20T06:23:27;1938.82;;;999.90;;
61527;SDS011;47395;42.032;-8.634;2023-01-20T06:25:30;1720.40;;;999.90;;
61527;SDS011;47395;42.032;-8.634;2023-01-20T06:27:30;1772.35;;;999.90;;
61527;SDS011;47395;42.032;-8.634;2023-01-20T06:29:32;1834.68;;;999.90;;
61527;SDS011;47395;42.032;-8.634;2023-01-20T06:31:34;1730.82;;;999.90;;
61527;SDS011;47395;42.032;-8.634;2023-01-20T06:33:35;1855.38;;;999.90;;
61527;SDS011;47395;42.032;-8.634;2023-01-20T06:35:37;1834.57;;;999.90;;
61527;SDS011;47395;42.032;-8.634;2023-01-20T06:37:38;1767.47;;;999.90;;
61527;SDS011;47395;42.032;-8.634;2023-01-20T06:39:38;1750.15;;;999.90;;
61527;SDS011;47395;42.032;-8.634;2023-01-20T06:41:40;1864.13;;;999.90;;
61527;SDS011;47395;42.032;-8.634;2023-01-20T06:43:42;1850.45;;;999.90;;
61527;SDS011;47395;42.032;-8.634;2023-01-20T06:45:44;1833.20;;;999.90;;
61527;SDS011;47395;42.032;-8.634;2023-01-20T06:47:48;1871.40;;;999.90;;
61527;SDS011;47395;42.032;-8.634;2023-01-20T06:49:49;1737.78;;;999.90;;
61527;SDS011;47395;42.032;-8.634;2023-01-20T06:51:51;1825.43;;;999.90;;
61527;SDS011;47395;42.032;-8.634;2023-01-20T06:53:53;1784.90;;;999.90;;
61527;SDS011;47395;42.032;-8.634;2023-01-20T06:55:55;1829.38;;;999.90;;
61527;SDS011;47395;42.032;-8.634;2023-01-20T06:57:56;1801.22;;;999.90;;
61527;SDS011;47395;42.032;-8.634;2023-01-20T06:59:58;1778.35;;;999.90;;
61527;SDS011;47395;42.032;-8.634;2023-01-20T07:01:59;1759.88;;;999.90;;
61527;SDS011;47395;42.032;-8.634;2023-01-20T07:04:00;1796.88;;;999.90;;
61527;SDS011;47395;42.032;-8.634;2023-01-20T07:06:03;1771.70;;;999.90;;
61527;SDS011;47395;42.032;-8.634;2023-01-20T07:08:06;1838.63;;;999.90;;
61527;SDS011;47395;42.032;-8.634;2023-01-20T07:10:08;1759.85;;;999.90;;
61527;SDS011;47395;42.032;-8.634;2023-01-20T07:12:11;1808.95;;;999.90;;
61527;SDS011;47395;42.032;-8.634;2023-01-20T07:14:12;1828.90;;;999.90;;
61527;SDS011;47395;42.032;-8.634;2023-01-20T07:16:13;1792.30;;;999.90;;
61527;SDS011;47395;42.032;-8.634;2023-01-20T07:18:15;1839.28;;;999.90;;
61527;SDS011;47395;42.032;-8.634;2023-01-20T07:20:16;1774.85;;;999.90;;
61527;SDS011;47395;42.032;-8.634;2023-01-20T07:22:17;1861.50;;;999.90;;
61527;SDS011;47395;42.032;-8.634;2023-01-20T07:24:18;1764.72;;;999.90;;
61527;SDS011;47395;42.032;-8.634;2023-01-20T07:26:20;1816.95;;;999.90;;
61527;SDS011;47395;42.032;-8.634;2023-01-20T07:28:22;1818.25;;;999.90;;
61527;SDS011;47395;42.032;-8.634;2023-01-20T07:30:24;1837.78;;;999.90;;
61527;SDS011;47395;42.032;-8.634;2023-01-20T07:32:28;1870.28;;;999.90;;
61527;SDS011;47395;42.032;-8.634;2023-01-20T07:34:29;1874.35;;;999.90;;
61527;SDS011;47395;42.032;-8.634;2023-01-20T07:36:30;1803.53;;;999.90;;
61527;SDS011;47395;42.032;-8.634;2023-01-20T07:38:31;1839.22;;;999.90;;
61527;SDS011;47395;42.032;-8.634;2023-01-20T07:40:32;1812.82;;;999.90;;
61527;SDS011;47395;42.032;-8.634;2023-01-20T07:42:37;1838.55;;;999.90;;
61527;SDS011;47395;42.032;-8.634;2023-01-20T07:44:40;1814.25;;;999.90;;
61527;SDS011;47395;42.032;-8.634;2023-01-20T07:46:40;1942.82;;;999.90;;
61527;SDS011;47395;42.032;-8.634;2023-01-20T07:48:42;1820.45;;;999.90;;
61527;SDS011;47395;42.032;-8.634;2023-01-20T07:50:43;1803.32;;;999.90;;
61527;SDS011;47395;42.032;-8.634;2023-01-20T07:52:43;1934.53;;;999.90;;
61527;SDS011;47395;42.032;-8.634;2023-01-20T07:54:45;1881.07;;;999.90;;
61527;SDS011;47395;42.032;-8.634;2023-01-20T07:56:46;1891.15;;;999.90;;
61527;SDS011;47395;42.032;-8.634;2023-01-20T07:58:47;1893.55;;;999.90;;
61527;SDS011;47395;42.032;-8.634;2023-01-20T08:00:51;1798.90;;;999.90;;
61527;SDS011;47395;42.032;-8.634;2023-01-20T08:02:52;1919.88;;;999.90;;
61527;SDS011;47395;42.032;-8.634;2023-01-20T08:04:52;1838.90;;;999.90;;
61527;SDS011;47395;42.032;-8.634;2023-01-20T08:06:53;1806.07;;;999.90;;
61527;SDS011;47395;42.032;-8.634;2023-01-20T08:08:55;1772.05;;;999.90;;
61527;SDS011;47395;42.032;-8.634;2023-01-20T08:11:00;1806.28;;;999.90;;
61527;SDS011;47395;42.032;-8.634;2023-01-20T08:13:03;1901.32;;;999.90;;
61527;SDS011;47395;42.032;-8.634;2023-01-20T08:15:07;1884.50;;;999.90;;
61527;SDS011;47395;42.032;-8.634;2023-01-20T08:17:09;1821.13;;;999.90;;
61527;SDS011;47395;42.032;-8.634;2023-01-20T08:19:10;1819.03;;;999.90;;
61527;SDS011;47395;42.032;-8.634;2023-01-20T08:21:26;1782.70;;;999.90;;
61527;SDS011;47395;42.032;-8.634;2023-01-20T08:23:29;1802.55;;;999.90;;
61527;SDS011;47395;42.032;-8.634;2023-01-20T08:25:31;1898.00;;;999.90;;
61527;SDS011;47395;42.032;-8.634;2023-01-20T08:27:33;1923.70;;;999.90;;
61527;SDS011;47395;42.032;-8.634;2023-01-20T08:29:36;1769.40;;;999.90;;
61527;SDS011;47395;42.032;-8.634;2023-01-20T08:31:37;1822.80;;;999.90;;
61527;SDS011;47395;42.032;-8.634;2023-01-20T08:33:39;1880.25;;;999.90;;
61527;SDS011;47395;42.032;-8.634;2023-01-20T08:35:42;1940.05;;;999.90;;
61527;SDS011;47395;42.032;-8.634;2023-01-20T08:37:43;1835.93;;;999.90;;
61527;SDS011;47395;42.032;-8.634;2023-01-20T08:39:45;1799.82;;;999.90;;
61527;SDS011;47395;42.032;-8.634;2023-01-20T08:41:48;1801.07;;;999.90;;
61527;SDS011;47395;42.032;-8.634;2023-01-20T08:43:49;1842.70;;;999.90;;
61527;SDS011;47395;42.032;-8.634;2023-01-20T08:45:58;1844.90;;;999.90;;
61527;SDS011;47395;42.032;-8.634;2023-01-20T08:48:00;1866.40;;;999.90;;
61527;SDS011;47395;42.032;-8.634;2023-01-20T08:50:02;1797.70;;;999.90;;
61527;SDS011;47395;42.032;-8.634;2023-01-20T08:52:07;1859.68;;;999.90;;
61527;SDS011;47395;42.032;-8.634;2023-01-20T08:54:08;1795.40;;;999.90;;
61527;SDS011;47395;42.032;-8.634;2023-01-20T08:56:10;1858.57;;;999.90;;
61527;SDS011;47395;42.032;-8.634;2023-01-20T08:58:11;1863.38;;;999.90;;
61527;SDS011;47395;42.032;-8.634;2023-01-20T09:00:13;1782.15;;;999.90;;
61527;SDS011;47395;42.032;-8.634;2023-01-20T09:02:15;1838.28;;;999.90;;
61527;SDS011;47395;42.032;-8.634;2023-01-20T09:04:16;1894.93;;;999.90;;
61527;SDS011;47395;42.032;-8.634;2023-01-20T09:06:19;1830.95;;;999.90;;
61527;SDS011;47395;42.032;-8.634;2023-01-20T09:08:21;1807.15;;;999.90;;
61527;SDS011;47395;42.032;-8.634;2023-01-20T09:10:26;1894.07;;;999.90;;
61527;SDS011;47395;42.032;-8.634;2023-01-20T09:12:28;1946.38;;;999.90;;
61527;SDS011;47395;42.032;-8.634;2023-01-20T09:14:29;1895.53;;;999.90;;
61527;SDS011;47395;42.032;-8.634;2023-01-20T09:16:30;1807.80;;;999.90;;
61527;SDS011;47395;42.032;-8.634;2023-01-20T09:18:33;1937.75;;;999.90;;
61527;SDS011;47395;42.032;-8.634;2023-01-20T09:20:34;1882.93;;;999.90;;
61527;SDS011;47395;42.032;-8.634;2023-01-20T09:22:37;1955.22;;;999.90;;
61527;SDS011;47395;42.032;-8.634;2023-01-20T09:24:40;1831.05;;;999.90;;
61527;SDS011;47395;42.032;-8.634;2023-01-20T09:26:41;1845.13;;;999.90;;
61527;SDS011;47395;42.032;-8.634;2023-01-20T09:28:42;1985.60;;;999.90;;
61527;SDS011;47395;42.032;-8.634;2023-01-20T09:30:46;1934.57;;;999.90;;
61527;SDS011;47395;42.032;-8.634;2023-01-20T09:32:48;1966.40;;;999.90;;
61527;SDS011;47395;42.032;-8.634;2023-01-20T09:34:52;1979.13;;;999.90;;
61527;SDS011;47395;42.032;-8.634;2023-01-20T09:36:56;1930.88;;;999.90;;
61527;SDS011;47395;42.032;-8.634;2023-01-20T09:39:18;1901.07;;;999.90;;
61527;SDS011;47395;42.032;-8.634;2023-01-20T09:41:38;1882.93;;;999.90;;
61527;SDS011;47395;42.032;-8.634;2023-01-20T09:49:27;1914.82;;;999.90;;
61527;SDS011;47395;42.032;-8.634;2023-01-20T09:52:21;1866.72;;;999.90;;
61527;SDS011;47395;42.032;-8.634;2023-01-20T09:55:29;1887.25;;;999.90;;
61527;SDS011;47395;42.032;-8.634;2023-01-20T09:57:17;1969.05;;;999.90;;
61527;SDS011;47395;42.032;-8.634;2023-01-20T09:59:32;1938.28;;;999.90;;
61527;SDS011;47395;42.032;-8.634;2023-01-20T10:01:41;1862.32;;;999.90;;
61527;SDS011;47395;42.032;-8.634;2023-01-20T10:03:49;1898.97;;;999.90;;
61527;SDS011;47395;42.032;-8.634;2023-01-20T10:06:03;1873.15;;;999.90;;
61527;SDS011;47395;42.032;-8.634;2023-01-20T10:08:14;1989.82;;;999.90;;
61527;SDS011;47395;42.032;-8.634;2023-01-20T10:11:07;1914.57;;;999.90;;
61527;SDS011;47395;42.032;-8.634;2023-01-20T10:12:56;1874.47;;;999.90;;
61527;SDS011;47395;42.032;-8.634;2023-01-20T10:17:37;1909.32;;;999.90;;
61527;SDS011;47395;42.032;-8.634;2023-01-20T10:22:26;1964.05;;;999.90;;
61527;SDS011;47395;42.032;-8.634;2023-01-20T10:24:32;1904.20;;;999.90;;
61527;SDS011;47395;42.032;-8.634;2023-01-20T10:26:50;1911.50;;;999.90;;
61527;SDS011;47395;42.032;-8.634;2023-01-20T10:28:58;1959.05;;;999.90;;
61527;SDS011;47395;42.032;-8.634;2023-01-20T10:31:01;1844.45;;;999.90;;
61527;SDS011;47395;42.032;-8.634;2023-01-20T10:33:13;1999.13;;;999.90;;
61527;SDS011;47395;42.032;-8.634;2023-01-20T10:35:26;1986.97;;;999.90;;
61527;SDS011;47395;42.032;-8.634;2023-01-20T10:37:28;1977.28;;;999.90;;
61527;SDS011;47395;42.032;-8.634;2023-01-20T10:39:38;1913.18;;;999.90;;
61527;SDS011;47395;42.032;-8.634;2023-01-20T10:41:51;1998.20;;;999.90;;
61527;SDS011;47395;42.032;-8.634;2023-01-20T10:44:01;1995.78;;;999.90;;
61527;SDS011;47395;42.032;-8.634;2023-01-20T10:56:48;1999.90;;;999.90;;
61527;SDS011;47395;42.032;-8.634;2023-01-20T10:58:54;1992.15;;;999.90;;
61527;SDS011;47395;42.032;-8.634;2023-01-20T11:00:58;1999.90;;;999.90;;
61527;SDS011;47395;42.032;-8.634;2023-01-20T11:03:02;1999.90;;;999.90;;
61527;SDS011;47395;42.032;-8.634;2023-01-20T11:05:18;1999.90;;;999.90;;
61527;SDS011;47395;42.032;-8.634;2023-01-20T11:07:38;1999.90;;;999.90;;
61527;SDS011;47395;42.032;-8.634;2023-01-20T11:09:40;1999.90;;;999.90;;
61527;SDS011;47395;42.032;-8.634;2023-01-20T11:11:42;1999.90;;;999.90;;
61527;SDS011;47395;42.032;-8.634;2023-01-20T11:13:43;1999.90;;;999.90;;
61527;SDS011;47395;42.032;-8.634;2023-01-20T11:15:45;1999.90;;;999.90;;
61527;SDS011;47395;42.032;-8.634;2023-01-20T11:20:16;1999.90;;;999.90;;
61527;SDS011;47395;42.032;-8.634;2023-01-20T11:22:30;1999.90;;;999.90;;
61527;SDS011;47395;42.032;-8.634;2023-01-20T11:24:39;1999.90;;;999.90;;
61527;SDS011;47395;42.032;-8.634;2023-01-20T11:26:43;1999.90;;;999.90;;
61527;SDS011;47395;42.032;-8.634;2023-01-20T11:28:45;1999.90;;;999.90;;
61527;SDS011;47395;42.032;-8.634;2023-01-20T11:30:52;1999.90;;;999.90;;
61527;SDS011;47395;42.032;-8.634;2023-01-20T11:33:08;1999.90;;;999.90;;
61527;SDS011;47395;42.032;-8.634;2023-01-20T11:35:21;1999.90;;;999.90;;
61527;SDS011;47395;42.032;-8.634;2023-01-20T11:37:25;1999.90;;;999.90;;
61527;SDS011;47395;42.032;-8.634;2023-01-20T11:39:41;1999.90;;;999.90;;
61527;SDS011;47395;42.032;-8.634;2023-01-20T11:44:21;1999.90;;;999.90;;
61527;SDS011;47395;42.032;-8.634;2023-01-20T11:46:26;1999.90;;;999.90;;
61527;SDS011;47395;42.032;-8.634;2023-01-20T11:48:31;1999.90;;;999.90;;
61527;SDS011;47395;42.032;-8.634;2023-01-20T11:50:39;1999.90;;;999.90;;
61527;SDS011;47395;42.032;-8.634;2023-01-20T11:52:49;1999.90;;;999.90;;
61527;SDS011;47395;42.032;-8.634;2023-01-20T11:54:52;1999.90;;;999.90;;
61527;SDS011;47395;42.032;-8.634;2023-01-20T11:57:15;1999.90;;;999.90;;
61527;SDS011;47395;42.032;-8.634;2023-01-20T11:59:21;1999.90;;;999.90;;
61527;SDS011;47395;42.032;-8.634;2023-01-20T12:01:30;1999.90;;;999.90;;
61527;SDS011;47395;42.032;-8.634;2023-01-20T12:04:01;1999.90;;;999.90;;
61527;SDS011;47395;42.032;-8.634;2023-01-20T12:06:32;1999.90;;;999.90;;
61527;SDS011;47395;42.032;-8.634;2023-01-20T12:08:51;1999.90;;;999.90;;
61527;SDS011;47395;42.032;-8.634;2023-01-20T12:10:59;1999.90;;;999.90;;
61527;SDS011;47395;42.032;-8.634;2023-01-20T12:13:11;1999.90;;;999.90;;
61527;SDS011;47395;42.032;-8.634;2023-01-20T12:15:32;1999.90;;;999.90;;
61527;SDS011;47395;42.032;-8.634;2023-01-20T12:19:48;1999.90;;;999.90;;
61527;SDS011;47395;42.032;-8.634;2023-01-20T12:22:41;1999.90;;;999.90;;
61527;SDS011;47395;42.032;-8.634;2023-01-20T12:25:26;1999.90;;;999.90;;
61527;SDS011;47395;42.032;-8.634;2023-01-20T12:27:29;1999.90;;;999.90;;
61527;SDS011;47395;42.032;-8.634;2023-01-20T12:29:35;1999.90;;;999.90;;
61527;SDS011;47395;42.032;-8.634;2023-01-20T12:31:43;1999.90;;;999.90;;